Time;durP1;ratioP1;P1;durP2;ratioP2;P2;SDS_P1;SDS_P2;PMS_P1;PMS_P2;Temp;Humidity;BMP_temperature;BMP_pressure;BME280_temperature;BME280_humidity;BME280_pressure;Samples;Min_cycle;Max_cycle;Signal;HPM_P1;HPM_P2
2021/11/04 00:00:51;;;;;;;19.93;10.47;;;;;;;;;;4999404;28;20221;-88
2021/11/04 00:03:20;;;;;;;21.03;11.13;;;;;;;;;;5015342;28;20193;-87
2021/11/04 00:05:46;;;;;;;25.00;12.43;;;;;;;;;;4999137;28;20185;-87
2021/11/04 00:08:12;;;;;;;23.43;12.00;;;6.20;99.90;;;;;;5016230;28;20205;-87
2021/11/04 00:10:38;;;;;;;20.87;12.43;;;;;;;;;;4998471;28;20229;-87
2021/11/04 00:13:04;;;;;;;25.13;13.80;;;6.20;99.90;;;;;;5015067;28;20196;-87
2021/11/04 00:15:30;;;;;;;27.50;14.10;;;;;;;;;;5014496;28;20182;-89
2021/11/04 00:17:58;;;;;;;26.87;14.77;;;;;;;;;;5014742;28;20287;-87
2021/11/04 00:20:24;;;;;;;23.00;12.27;;;;;;;;;;5015924;28;20356;-87
2021/11/04 00:22:50;;;;;;;22.17;11.90;;;;;;;;;;5015961;28;20231;-87
2021/11/04 00:25:20;;;;;;;17.80;9.97;;;;;;;;;;5014366;28;20192;-86
2021/11/04 00:27:47;;;;;;;18.37;9.60;;;6.20;99.90;;;;;;5014169;28;20260;-86
2021/11/04 00:30:13;;;;;;;16.73;9.70;;;;;;;;;;5014404;28;20562;-85
2021/11/04 00:32:55;;;;;;;29.63;11.90;;;6.20;99.90;;;;;;5015945;28;20184;-87
2021/11/04 00:35:21;;;;;;;34.60;12.33;;;;;;;;;;5014294;28;20555;-86
2021/11/04 00:37:48;;;;;;;24.43;11.10;;;;;;;;;;5015452;28;20684;-86
2021/11/04 00:40:17;;;;;;;21.80;10.77;;;5.90;99.90;;;;;;5014236;28;20252;-87
2021/11/04 00:42:44;;;;;;;23.23;10.33;;;;;;;;;;5014202;28;20185;-87
2021/11/04 00:45:10;;;;;;;18.50;10.43;;;5.80;99.90;;;;;;5015231;28;20169;-86
2021/11/04 00:47:36;;;;;;;19.67;10.60;;;;;;;;;;5014158;28;20262;-87
2021/11/04 00:50:04;;;;;;;19.70;10.40;;;5.80;99.90;;;;;;5014106;28;20192;-87
2021/11/04 00:52:30;;;;;;;21.00;10.60;;;;;;;;;;5014246;28;20181;-85
2021/11/04 00:54:58;;;;;;;21.47;10.73;;;5.80;99.90;;;;;;5013909;28;20181;-86
2021/11/04 00:57:24;;;;;;;18.80;11.00;;;;;;;;;;4997645;28;20648;-85
2021/11/04 00:59:50;;;;;;;21.13;11.30;;;;;;;;;;5013641;28;20291;-84
2021/11/04 01:02:16;;;;;;;17.77;10.77;;;;;;;;;;5014034;28;20284;-86
2021/11/04 01:04:43;;;;;;;22.83;11.63;;;;;;;;;;5015267;28;20685;-86
2021/11/04 01:07:08;;;;;;;22.43;11.53;;;5.80;99.90;;;;;;5013818;28;20248;-86
2021/11/04 01:09:34;;;;;;;18.60;10.33;;;5.80;99.90;;;;;;5013885;28;20630;-85
2021/11/04 01:12:00;;;;;;;18.97;10.90;;;5.70;99.90;;;;;;4997256;28;20272;-84
2021/11/04 01:14:25;;;;;;;22.93;11.33;;;5.80;99.90;;;;;;5013724;28;20188;-85
2021/11/04 01:16:51;;;;;;;25.90;11.70;;;5.80;99.90;;;;;;5014620;28;20185;-86
2021/11/04 01:19:17;;;;;;;29.63;12.67;;;5.80;99.90;;;;;;5013729;28;20551;-85
2021/11/04 01:21:43;;;;;;;20.93;11.90;;;5.80;99.90;;;;;;4997130;28;20188;-86
2021/11/04 01:24:09;;;;;;;19.40;11.33;;;5.80;99.90;;;;;;5013508;28;20622;-86
2021/11/04 01:26:34;;;;;;;18.90;10.80;;;5.80;99.90;;;;;;4997077;28;20189;-86
2021/11/04 01:29:00;;;;;;;21.10;11.77;;;5.80;99.90;;;;;;4997054;28;20324;-86
2021/11/04 01:31:26;;;;;;;26.27;13.63;;;;;;;;;;5014737;28;20173;-86
2021/11/04 01:33:52;;;;;;;47.67;17.43;;;5.80;99.90;;;;;;4997006;28;20193;-86
2021/11/04 01:36:18;;;;;;;53.67;19.27;;;5.90;99.90;;;;;;5013442;28;20641;-87
2021/11/04 01:38:44;;;;;;;65.47;21.70;;;5.90;99.90;;;;;;4997000;28;20239;-87
2021/11/04 01:41:09;;;;;;;62.77;21.73;;;5.90;99.90;;;;;;5013514;28;20216;-85
2021/11/04 01:43:43;;;;;;;48.97;19.07;;;5.90;99.90;;;;;;5012988;28;20182;-86
2021/11/04 01:46:10;;;;;;;32.23;14.80;;;;;;;;;;5013139;28;20177;-87
2021/11/04 01:48:36;;;;;;;22.40;11.17;;;;;;;;;;5012613;28;20177;-87
2021/11/04 01:51:02;;;;;;;18.10;9.40;;;;;;;;;;5013058;28;20213;-86
2021/11/04 01:53:28;;;;;;;20.43;9.90;;;;;;;;;;4996814;28;20185;-87
2021/11/04 01:55:54;;;;;;;18.50;9.60;;;;;;;;;;5012962;28;20260;-87
2021/11/04 01:58:22;;;;;;;20.97;9.20;;;;;;;;;;5013036;28;20184;-86
2021/11/04 02:00:48;;;;;;;19.40;9.27;;;;;;;;;;5012866;28;20319;-85
2021/11/04 02:03:44;;;;;;;29.43;12.07;;;6.20;99.90;;;;;;5014244;28;20272;-85
2021/11/04 02:06:25;;;;;;;25.77;10.97;;;6.20;99.90;;;;;;5013374;28;20185;-85
2021/11/04 02:09:28;;;;;;;50.53;17.03;;;6.30;99.90;;;;;;5012880;28;20180;-85
2021/11/04 02:11:59;;;;;;;47.40;16.30;;;6.20;99.90;;;;;;5012863;28;20191;-84
2021/11/04 02:14:41;;;;;;;36.63;13.20;;;6.20;99.90;;;;;;5012865;28;20268;-85
2021/11/04 02:17:07;;;;;;;33.37;12.57;;;;;;;;;;5013803;28;20247;-85
2021/11/04 02:19:48;;;;;;;22.67;10.80;;;6.30;99.90;;;;;;4996434;28;20332;-85
2021/11/04 02:22:37;;;;;;;32.57;12.10;;;6.30;99.90;;;;;;5012896;28;20187;-84
2021/11/04 02:25:18;;;;;;;29.13;13.90;;;6.30;99.90;;;;;;5012145;28;20200;-85
2021/11/04 02:27:57;;;;;;;33.33;14.63;;;6.30;99.90;;;;;;5012438;28;20229;-85
2021/11/04 02:30:24;;;;;;;53.57;23.37;;;6.30;99.90;;;;;;5012815;28;20188;-85
2021/11/04 02:32:51;;;;;;;42.17;19.03;;;6.30;99.90;;;;;;5012556;28;20189;-86
2021/11/04 02:35:20;;;;;;;35.87;16.33;;;;;;;;;;5013540;28;20173;-85
2021/11/04 02:37:47;;;;;;;32.80;15.37;;;6.20;99.90;;;;;;5012782;28;20186;-85
2021/11/04 02:40:14;;;;;;;23.00;12.93;;;6.20;99.90;;;;;;5012595;28;20566;-85
2021/11/04 02:42:41;;;;;;;21.17;11.63;;;6.20;99.90;;;;;;5012799;28;20192;-85
2021/11/04 02:45:09;;;;;;;16.17;10.27;;;6.20;99.90;;;;;;4996115;28;20193;-85
2021/11/04 02:47:37;;;;;;;16.47;9.77;;;6.20;99.90;;;;;;5013821;28;20173;-86
2021/11/04 02:50:07;;;;;;;20.90;11.57;;;6.20;99.90;;;;;;4996223;28;20189;-85
2021/11/04 02:52:34;;;;;;;23.67;11.17;;;6.10;99.90;;;;;;5012578;28;20642;-85
2021/11/04 02:55:03;;;;;;;16.93;9.67;;;;;;;;;;5012307;28;20185;-85
2021/11/04 02:57:29;;;;;;;17.77;9.00;;;;;;;;;;4996652;28;20185;-85
2021/11/04 02:59:59;;;;;;;12.97;7.53;;;;;;;;;;4999656;28;20662;-85
2021/11/04 03:02:27;;;;;;;14.77;7.10;;;6.00;99.90;;;;;;5016423;28;20652;-85
2021/11/04 03:04:53;;;;;;;20.40;9.80;;;;;;;;;;5016287;28;20191;-85
2021/11/04 03:07:19;;;;;;;25.40;9.17;;;;;;;;;;5017340;28;20192;-85
2021/11/04 03:09:45;;;;;;;106.97;31.73;;;;;;;;;;5016260;28;20189;-86
2021/11/04 03:12:13;;;;;;;81.43;27.33;;;;;;;;;;5016123;28;20188;-87
2021/11/04 03:14:39;;;;;;;66.33;22.47;;;;;;;;;;5015967;28;20192;-87
2021/11/04 03:17:08;;;;;;;64.63;20.97;;;;;;;;;;5016003;28;20192;-87
2021/11/04 03:19:34;;;;;;;49.40;18.07;;;;;;;;;;5015780;28;20200;-86
2021/11/04 03:22:03;;;;;;;47.77;18.57;;;5.50;99.90;;;;;;5016041;28;20196;-86
2021/11/04 03:24:37;;;;;;;46.73;18.03;;;5.40;99.90;;;;;;5022093;28;20181;-87
2021/11/04 03:27:09;;;;;;;40.93;16.50;;;5.40;99.90;;;;;;5026794;28;20768;-86
2021/11/04 03:29:41;;;;;;;48.40;16.67;;;5.40;99.90;;;;;;5028394;28;20185;-86
2021/11/04 03:32:13;;;;;;;55.20;17.97;;;5.40;99.90;;;;;;5027989;28;20181;-87
2021/11/04 03:34:39;;;;;;;40.03;16.47;;;;;;;;;;5035111;28;20189;-87
2021/11/04 03:37:06;;;;;;;34.13;14.53;;;5.40;99.90;;;;;;5040490;28;20188;-86
2021/11/04 03:39:35;;;;;;;32.93;12.77;;;5.40;99.90;;;;;;5040472;28;20197;-86
2021/11/04 03:42:02;;;;;;;27.97;10.40;;;5.30;99.90;;;;;;5040305;28;20221;-86
2021/11/04 03:44:28;;;;;;;24.77;9.53;;;5.40;99.90;;;;;;5039353;28;20241;-86
2021/11/04 03:46:56;;;;;;;16.80;8.67;;;5.50;99.90;;;;;;5032031;28;20196;-88
2021/11/04 03:49:24;;;;;;;13.50;7.37;;;5.80;99.90;;;;;;5030757;28;20185;-86
2021/11/04 03:51:52;;;;;;;14.27;8.00;;;5.60;99.90;;;;;;5039310;28;20178;-86
2021/11/04 03:54:21;;;;;;;13.13;7.67;;;5.70;99.90;;;;;;5040174;28;20162;-85
2021/11/04 03:56:48;;;;;;;16.53;6.97;;;;;;;;;;5023342;28;20169;-85
2021/11/04 03:59:14;;;;;;;12.30;7.20;;;;;;;;;;5031585;28;20224;-85
2021/11/04 04:01:39;;;;;;;18.77;8.63;;;5.90;99.90;;;;;;5015986;28;20181;-85
2021/11/04 04:04:08;;;;;;;18.23;8.80;;;5.90;99.90;;;;;;4982523;28;20635;-85
2021/11/04 04:06:35;;;;;;;15.33;7.93;;;6.00;99.90;;;;;;5015502;28;20554;-85
2021/11/04 04:09:02;;;;;;;12.80;7.73;;;6.20;99.90;;;;;;5015476;28;20260;-85
2021/11/04 04:11:28;;;;;;;15.73;7.70;;;;;;;;;;5014936;28;20200;-85
2021/11/04 04:13:55;;;;;;;11.30;7.13;;;;;;;;;;5015158;28;20542;-84
2021/11/04 04:16:21;;;;;;;12.30;7.13;;;;;;;;;;5014911;28;20182;-85
2021/11/04 04:18:53;;;;;;;10.97;6.17;;;6.50;99.90;;;;;;5015840;28;20627;-86
2021/11/04 04:21:22;;;;;;;10.73;6.50;;;6.70;99.90;;;;;;5017982;28;20189;-87
2021/11/04 04:23:50;;;;;;;10.20;6.73;;;6.80;99.90;;;;;;5021089;28;20208;-87
2021/11/04 04:26:21;;;;;;;12.40;6.63;;;6.80;99.90;;;;;;5004399;28;20181;-88
2021/11/04 04:28:51;;;;;;;9.60;5.70;;;6.90;99.90;;;;;;5024309;28;20319;-88
2021/11/04 04:31:20;;;;;;;11.90;6.20;;;;;;;;;;5001061;28;20185;-88
2021/11/04 04:33:57;;;;;;;12.73;6.70;;;7.00;99.90;;;;;;5017858;28;20181;-89
2021/11/04 04:36:24;;;;;;;11.53;6.27;;;;;;;;;;5021767;28;20195;-88
2021/11/04 04:38:54;;;;;;;11.40;6.20;;;7.00;99.90;;;;;;5025160;28;20232;-89
2021/11/04 04:41:20;;;;;;;13.10;7.03;;;;;;;;;;5033790;28;20188;-88
2021/11/04 04:43:46;;;;;;;10.97;6.00;;;;;;;;;;5009103;28;20272;-88
2021/11/04 04:46:12;;;;;;;11.67;6.07;;;;;;;;;;5015716;28;20649;-86
2021/11/04 04:48:39;;;;;;;13.80;7.13;;;;;;;;;;5016075;28;20181;-86
2021/11/04 04:51:07;;;;;;;11.20;6.20;;;7.20;99.90;;;;;;5014678;28;20177;-87
2021/11/04 04:53:33;;;;;;;13.80;7.23;;;;;;;;;;5014326;28;20264;-87
2021/11/04 04:56:01;;;;;;;11.87;6.73;;;;;;;;;;5015272;28;20174;-90
2021/11/04 04:58:27;;;;;;;10.87;6.77;;;;;;;;;;5015222;28;20517;-90
2021/11/04 05:00:54;;;;;;;11.67;7.20;;;;;;;;;;5014139;28;20752;-87
2021/11/04 05:03:20;;;;;;;13.27;6.50;;;;;;;;;;5014243;28;20181;-89
2021/11/04 05:05:46;;;;;;;12.60;6.90;;;;;;;;;;5014649;28;20221;-89
2021/11/04 05:08:12;;;;;;;12.00;6.83;;;;;;;;;;5013793;28;20192;-89
2021/11/04 05:10:38;;;;;;;10.53;6.33;;;;;;;;;;5013818;28;20189;-88
2021/11/04 05:13:04;;;;;;;12.50;6.43;;;;;;;;;;5013879;28;20650;-88
2021/11/04 05:15:30;;;;;;;12.93;6.53;;;;;;;;;;5013917;28;20649;-88
2021/11/04 05:17:57;;;;;;;14.20;7.20;;;;;;;;;;5014649;28;20181;-89
2021/11/04 05:20:24;;;;;;;13.40;7.10;;;;;;;;;;5013698;28;20209;-88
2021/11/04 05:22:52;;;;;;;12.10;6.90;;;;;;;;;;5013728;28;20185;-87
2021/11/04 05:25:19;;;;;;;12.93;7.27;;;;;;;;;;5014554;28;20177;-87
2021/11/04 05:27:48;;;;;;;9.87;6.63;;;;;;;;;;5014060;28;20276;-87
2021/11/04 05:30:16;;;;;;;16.57;7.03;;;7.30;99.90;;;;;;5017752;28;20213;-87
2021/11/04 05:32:42;;;;;;;17.97;8.53;;;;;;;;;;5014648;28;20178;-85
2021/11/04 05:35:15;;;;;;;13.90;7.70;;;7.30;99.90;;;;;;5015686;28;20217;-87
2021/11/04 05:37:41;;;;;;;11.97;6.73;;;;;;;;;;5020175;28;20181;-88
2021/11/04 05:40:07;;;;;;;11.40;6.90;;;7.40;99.90;;;;;;5015637;28;20205;-84
2021/11/04 05:42:35;;;;;;;15.10;6.73;;;7.10;99.90;;;;;;5015514;28;20252;-89
2021/11/04 05:45:01;;;;;;;13.43;6.83;;;7.40;99.90;;;;;;5014681;28;20189;-87
2021/11/04 05:47:27;;;;;;;10.07;6.03;;;;;;;;;;5014317;28;20203;-87
2021/11/04 05:49:52;;;;;;;9.93;6.40;;;7.50;99.90;;;;;;5016638;28;20182;-89
2021/11/04 05:52:18;;;;;;;16.20;6.43;;;7.50;99.90;;;;;;5015451;28;20252;-89
2021/11/04 05:54:44;;;;;;;14.13;7.40;;;7.50;99.90;;;;;;4982268;28;20272;-90
2021/11/04 05:57:10;;;;;;;13.53;6.77;;;7.50;99.90;;;;;;5015864;28;20541;-90
2021/11/04 05:59:35;;;;;;;12.50;6.43;;;7.50;99.90;;;;;;4999455;28;20287;-88
2021/11/04 06:02:01;;;;;;;11.33;6.90;;;7.60;99.90;;;;;;5015185;28;20770;-89
2021/11/04 06:04:32;;;;;;;12.00;6.80;;;7.60;99.90;;;;;;4996240;28;20177;-86
2021/11/04 06:06:58;;;;;;;16.13;7.07;;;7.60;99.90;;;;;;5014018;28;20162;-86
2021/11/04 06:09:23;;;;;;;13.93;7.33;;;7.70;99.90;;;;;;4980325;28;20185;-86
2021/11/04 06:11:50;;;;;;;13.53;7.63;;;7.70;99.90;;;;;;4997253;28;20198;-89
2021/11/04 06:14:16;;;;;;;14.57;7.27;;;;;;;;;;5014464;28;20212;-90
2021/11/04 06:16:42;;;;;;;13.07;7.17;;;7.80;99.90;;;;;;4998678;28;20189;-88
2021/11/04 06:19:08;;;;;;;13.90;6.80;;;7.90;99.90;;;;;;5014584;28;20792;-88
2021/11/04 06:21:38;;;;;;;11.00;6.83;;;7.90;99.90;;;;;;4998243;28;20189;-90
2021/11/04 06:24:12;;;;;;;13.13;7.83;;;7.90;99.90;;;;;;5014343;28;20181;-88
2021/11/04 06:26:38;;;;;;;17.93;7.30;;;;;;;;;;5012249;28;20172;-89
2021/11/04 06:29:11;;;;;;;15.10;7.73;;;8.00;99.90;;;;;;5012316;28;20606;-89
2021/11/04 06:31:37;;;;;;;13.30;7.33;;;;;;;;;;5011995;28;20181;-89
2021/11/04 06:34:03;;;;;;;15.40;8.87;;;;;;;;;;5013022;28;20212;-87
2021/11/04 06:36:32;;;;;;;11.57;7.53;;;;;;;;;;5013416;28;20205;-87
2021/11/04 06:39:00;;;;;;;13.43;7.10;;;;;;;;;;4995962;28;20688;-87
2021/11/04 06:41:28;;;;;;;13.17;7.53;;;8.20;99.90;;;;;;5011473;28;20260;-87
2021/11/04 06:43:55;;;;;;;16.70;8.67;;;;;;;;;;5008648;28;20315;-87
2021/11/04 06:46:25;;;;;;;14.90;7.80;;;8.30;99.90;;;;;;4992622;28;20188;-88
2021/11/04 06:49:04;;;;;;;13.53;7.43;;;8.40;99.90;;;;;;5011923;28;20184;-86
2021/11/04 06:51:32;;;;;;;22.50;8.87;;;8.40;99.90;;;;;;5011939;28;20212;-87
2021/11/04 06:54:02;;;;;;;14.50;7.83;;;8.40;99.90;;;;;;5009335;28;20543;-87
2021/11/04 06:56:36;;;;;;;17.07;8.77;;;8.40;99.90;;;;;;5009216;28;20196;-86
2021/11/04 06:59:04;;;;;;;14.60;8.10;;;8.50;99.90;;;;;;5010546;28;20168;-86
2021/11/04 07:01:32;;;;;;;18.20;9.23;;;8.40;99.90;;;;;;5009434;28;20181;-86
2021/11/04 07:04:07;;;;;;;13.93;8.10;;;8.40;99.90;;;;;;5010141;28;20208;-86
2021/11/04 07:06:43;;;;;;;17.77;8.43;;;8.10;99.90;;;;;;5010058;28;20183;-86
2021/11/04 07:09:09;;;;;;;15.83;7.83;;;;;;;;;;5010447;28;20207;-86
2021/11/04 07:11:39;;;;;;;19.03;8.87;;;8.40;99.90;;;;;;5010225;28;20185;-86
2021/11/04 07:14:05;;;;;;;19.77;9.30;;;8.40;99.90;;;;;;5009825;28;20273;-86
2021/11/04 07:16:30;;;;;;;14.33;8.03;;;8.50;99.90;;;;;;5009787;28;20268;-88
2021/11/04 07:18:59;;;;;;;17.43;7.93;;;8.60;99.90;;;;;;4994551;28;20193;-86
2021/11/04 07:21:33;;;;;;;13.97;9.03;;;8.50;99.90;;;;;;5010635;28;20177;-89
2021/11/04 07:24:01;;;;;;;17.37;8.03;;;8.60;99.90;;;;;;5011592;28;20180;-91
2021/11/04 07:26:34;;;;;;;17.50;7.90;;;8.60;99.90;;;;;;5011410;28;20181;-90
2021/11/04 07:28:59;;;;;;;15.10;8.00;;;8.80;99.90;;;;;;5017893;28;20238;-91
2021/11/04 07:31:27;;;;;;;15.83;7.43;;;8.80;99.90;;;;;;5013548;28;20185;-91
2021/11/04 07:33:53;;;;;;;19.97;7.87;;;;;;;;;;5017369;28;20188;-90
2021/11/04 07:36:20;;;;;;;14.57;7.80;;;8.80;99.90;;;;;;5012596;28;20631;-89
2021/11/04 07:38:47;;;;;;;15.30;7.97;;;8.90;99.90;;;;;;5010939;28;20232;-87
2021/11/04 07:41:14;;;;;;;16.67;8.53;;;8.90;99.90;;;;;;4977599;28;20223;-88
2021/11/04 07:43:40;;;;;;;16.40;8.40;;;8.90;99.90;;;;;;5010120;28;20191;-89
2021/11/04 07:46:06;;;;;;;18.20;8.20;;;9.00;99.90;;;;;;4996064;28;20181;-87
2021/11/04 07:48:32;;;;;;;26.30;11.07;;;9.00;99.90;;;;;;4997048;28;20207;-85
2021/11/04 07:50:58;;;;;;;18.27;8.67;;;9.00;99.90;;;;;;4997314;28;20181;-87
2021/11/04 07:53:25;;;;;;;18.40;9.13;;;9.00;99.90;;;;;;5013178;28;20205;-90
2021/11/04 07:55:52;;;;;;;20.63;10.10;;;9.10;99.90;;;;;;4997231;28;20301;-87
2021/11/04 07:58:18;;;;;;;21.03;10.40;;;;;;;;;;5014289;28;20181;-87
2021/11/04 08:00:44;;;;;;;18.57;9.90;;;9.10;99.90;;;;;;5013502;28;20708;-86
2021/11/04 08:03:10;;;;;;;15.77;9.47;;;9.00;99.90;;;;;;4997301;28;20194;-86
2021/11/04 08:05:36;;;;;;;18.40;9.83;;;9.10;99.90;;;;;;5014954;28;20173;-87
2021/11/04 08:08:06;;;;;;;16.10;9.37;;;9.10;99.90;;;;;;5014021;28;20212;-91
2021/11/04 08:10:32;;;;;;;17.73;9.53;;;;;;;;;;5013695;28;20177;-90
2021/11/04 08:13:06;;;;;;;20.50;10.23;;;;;;;;;;5014586;28;20650;-88
2021/11/04 08:15:31;;;;;;;16.43;9.60;;;9.20;99.90;;;;;;4998444;28;20182;-88
2021/11/04 08:17:59;;;;;;;18.47;10.13;;;9.10;99.90;;;;;;5013917;28;20177;-87
2021/11/04 08:20:25;;;;;;;21.40;10.73;;;9.20;99.90;;;;;;5012619;28;20572;-88
2021/11/04 08:22:51;;;;;;;20.97;10.70;;;;;;;;;;4996526;28;20185;-87
2021/11/04 08:25:17;;;;;;;19.23;11.10;;;9.20;99.90;;;;;;5013214;28;20177;-88
2021/11/04 08:27:43;;;;;;;23.67;10.73;;;;;;;;;;5013139;28;20233;-88
2021/11/04 08:30:15;;;;;;;21.73;11.23;;;;;;;;;;5013706;28;20181;-86
2021/11/04 08:32:42;;;;;;;25.00;10.63;;;;;;;;;;5012669;28;20216;-88
2021/11/04 08:35:08;;;;;;;25.33;11.90;;;;;;;;;;5012905;28;20185;-86
2021/11/04 08:37:36;;;;;;;36.60;15.43;;;9.30;99.90;;;;;;5012792;28;20185;-87
2021/11/04 08:40:02;;;;;;;27.07;13.00;;;;;;;;;;4996634;28;20304;-87
2021/11/04 08:42:28;;;;;;;29.90;12.37;;;9.30;99.90;;;;;;5012712;28;20243;-89
2021/11/04 08:44:59;;;;;;;24.70;12.07;;;9.30;99.90;;;;;;5013178;28;20189;-88
2021/11/04 08:47:25;;;;;;;24.43;11.80;;;;;;;;;;5013910;28;20176;-87
2021/11/04 08:49:51;;;;;;;19.90;11.53;;;;;;;;;;5013246;28;20189;-86
2021/11/04 08:52:17;;;;;;;24.87;12.13;;;;;;;;;;5013859;28;20634;-87
2021/11/04 08:54:43;;;;;;;24.60;12.40;;;;;;;;;;5013301;28;20177;-88
2021/11/04 08:57:12;;;;;;;31.40;14.20;;;;;;;;;;4995806;28;20232;-88
2021/11/04 08:59:41;;;;;;;23.13;11.93;;;;;;;;;;5012899;28;20204;-87
2021/11/04 09:02:09;;;;;;;31.20;14.17;;;;;;;;;;4996949;28;20193;-87
2021/11/04 09:04:35;;;;;;;25.83;12.73;;;;;;;;;;5014524;28;20190;-87
2021/11/04 09:07:01;;;;;;;27.03;13.33;;;;;;;;;;5013813;28;20783;-87
2021/11/04 09:09:27;;;;;;;28.80;14.20;;;;;;;;;;5014081;28;20579;-87
2021/11/04 09:11:53;;;;;;;26.33;12.80;;;;;;;;;;5012683;28;20188;-87
2021/11/04 09:14:19;;;;;;;24.97;13.10;;;;;;;;;;4996750;28;20189;-87
2021/11/04 09:16:48;;;;;;;29.23;14.10;;;9.40;99.90;;;;;;5013541;28;20188;-87
2021/11/04 09:19:14;;;;;;;36.63;15.37;;;;;;;;;;5014569;28;20304;-86
2021/11/04 09:21:40;;;;;;;32.00;15.00;;;;;;;;;;5016513;28;20178;-88
2021/11/04 09:24:07;;;;;;;30.43;14.80;;;;;;;;;;5014044;28;20177;-86
2021/11/04 09:26:37;;;;;;;34.47;14.23;;;9.60;99.90;;;;;;5013501;28;20292;-87
2021/11/04 09:29:03;;;;;;;31.20;14.00;;;;;;;;;;5014007;28;20177;-86
2021/11/04 09:31:29;;;;;;;26.73;13.57;;;;;;;;;;5016600;28;20188;-86
2021/11/04 09:33:57;;;;;;;25.63;12.60;;;9.90;99.90;;;;;;5000466;28;20192;-90
2021/11/04 09:36:25;;;;;;;29.23;11.77;;;10.50;99.90;;;;;;5023145;28;20177;-89
2021/11/04 09:38:52;;;;;;;27.33;12.43;;;11.10;99.90;;;;;;5015847;28;20212;-90
2021/11/04 09:41:17;;;;;;;27.93;12.67;;;11.20;99.90;;;;;;5013960;28;20584;-89
2021/11/04 09:43:44;;;;;;;25.70;12.45;;;;;;;;;;5013127;28;20200;-90
2021/11/04 09:46:10;;;;;;;32.80;13.90;;;11.30;99.90;;;;;;5013972;28;20272;-91
2021/11/04 09:48:36;;;;;;;28.83;13.55;;;11.50;99.90;;;;;;5012769;28;20265;-89
2021/11/04 09:51:04;;;;;;;24.77;12.68;;;11.70;99.90;;;;;;5014263;28;20603;-91
2021/11/04 09:53:30;;;;;;;26.35;13.80;;;11.50;99.90;;;;;;5013281;28;20205;-87
2021/11/04 09:55:58;;;;;;;29.65;13.73;;;11.50;99.90;;;;;;5014311;28;20700;-87
2021/11/04 09:58:24;;;;;;;29.55;15.40;;;11.30;99.90;;;;;;5014647;28;20649;-88
2021/11/04 10:00:51;;;;;;;31.05;14.65;;;11.10;99.90;;;;;;4996091;28;20208;-85
2021/11/04 10:03:17;;;;;;;26.25;13.68;;;11.10;99.90;;;;;;5005465;28;20196;-84
2021/11/04 10:05:53;;;;;;;30.15;14.40;;;11.00;99.90;;;;;;5022447;28;20182;-84
2021/11/04 10:08:39;;;;;;;34.90;13.65;;;11.00;99.90;;;;;;5025591;28;20181;-85
2021/11/04 10:11:07;;;;;;;28.63;13.95;;;10.90;99.90;;;;;;5034373;28;20232;-86
2021/11/04 10:13:33;;;;;;;33.92;13.45;;;10.90;99.90;;;;;;5033783;28;20169;-86
2021/11/04 10:15:59;;;;;;;31.42;13.40;;;10.90;99.90;;;;;;5037132;28;20169;-86
2021/11/04 10:18:25;;;;;;;22.98;12.93;;;10.90;99.90;;;;;;5037181;28;20165;-87
2021/11/04 10:21:05;;;;;;;26.92;13.40;;;10.90;99.90;;;;;;5036580;28;20209;-86
2021/11/04 10:23:44;;;;;;;28.67;12.63;;;10.90;99.90;;;;;;5036607;28;20193;-86
2021/11/04 10:26:15;;;;;;;28.20;13.50;;;10.90;99.90;;;;;;5026120;28;20277;-87
2021/11/04 10:28:48;;;;;;;31.67;14.10;;;10.90;99.90;;;;;;5032518;28;20208;-91
2021/11/04 10:31:17;;;;;;;27.93;14.13;;;10.90;99.90;;;;;;5035304;28;20185;-89
2021/11/04 10:33:48;;;;;;;29.60;15.13;;;10.90;99.90;;;;;;5035191;28;20192;-88
2021/11/04 10:36:22;;;;;;;27.08;14.02;;;10.90;99.90;;;;;;5036163;28;20174;-87
2021/11/04 10:38:49;;;;;;;32.00;15.03;;;11.00;99.90;;;;;;5022477;28;20173;-87
2021/11/04 10:41:20;;;;;;;32.00;15.50;;;11.00;99.90;;;;;;5013657;28;20255;-89
2021/11/04 10:43:48;;;;;;;33.05;15.90;;;11.00;99.90;;;;;;5011610;28;20230;-85
2021/11/04 10:46:16;;;;;;;34.00;15.13;;;11.00;99.90;;;;;;5012176;28;20204;-87
2021/11/04 10:48:46;;;;;;;27.67;14.57;;;11.00;99.90;;;;;;5013376;28;20264;-87
2021/11/04 10:51:32;;;;;;;30.05;14.35;;;11.00;99.90;;;;;;5017306;28;20173;-87
2021/11/04 10:54:01;;;;;;;30.87;15.60;;;11.00;99.90;;;;;;5015673;28;20230;-88
2021/11/04 10:56:27;;;;;;;30.23;14.77;;;11.00;99.90;;;;;;5010916;28;20185;-89
2021/11/04 10:59:05;;;;;;;33.55;14.98;;;11.00;99.90;;;;;;5010818;28;20268;-88
2021/11/04 11:01:38;;;;;;;32.70;16.08;;;11.00;99.90;;;;;;5013164;28;20247;-87
2021/11/04 11:04:08;;;;;;;32.13;16.27;;;11.00;99.90;;;;;;5016793;28;20174;-89
2021/11/04 11:06:43;;;;;;;30.42;15.48;;;11.10;99.90;;;;;;5018365;28;20244;-87
2021/11/04 11:09:19;;;;;;;31.70;15.82;;;11.10;99.90;;;;;;5017905;28;20598;-87
2021/11/04 11:11:47;;;;;;;30.40;14.87;;;11.10;99.90;;;;;;5010881;28;20181;-90
2021/11/04 11:14:15;;;;;;;25.27;13.40;;;11.10;99.90;;;;;;5010899;28;20181;-86
2021/11/04 11:16:49;;;;;;;26.38;14.25;;;11.20;99.90;;;;;;5009856;28;20208;-88
2021/11/04 11:19:23;;;;;;;31.13;14.83;;;11.20;99.90;;;;;;4995322;28;20185;-87
2021/11/04 11:21:51;;;;;;;30.73;15.27;;;11.20;99.90;;;;;;5015083;28;20268;-86
2021/11/04 11:24:41;;;;;;;29.45;14.60;;;11.30;99.90;;;;;;5014924;28;20182;-85
2021/11/04 11:27:15;;;;;;;34.65;16.02;;;11.40;99.90;;;;;;5005220;28;20236;-88
2021/11/04 11:29:44;;;;;;;32.45;15.57;;;10.90;99.90;;;;;;5015018;28;20181;-86
2021/11/04 11:32:24;;;;;;;33.47;16.05;;;11.60;99.90;;;;;;5015000;28;20209;-85
2021/11/04 11:35:14;;;;;;;41.90;17.10;;;11.70;99.90;;;;;;5014629;28;20185;-87
2021/11/04 11:37:56;;;;;;;37.67;17.60;;;11.70;99.90;;;;;;5013790;28;20634;-86
2021/11/04 11:40:27;;;;;;;27.95;15.68;;;11.80;99.90;;;;;;5013289;28;20212;-87
2021/11/04 11:43:03;;;;;;;33.55;16.33;;;11.90;99.90;;;;;;5013408;28;20185;-87
2021/11/04 11:45:37;;;;;;;25.75;14.07;;;12.00;99.90;;;;;;5014461;28;20177;-88
2021/11/04 11:48:26;;;;;;;28.85;14.40;;;11.80;99.90;;;;;;5013337;28;20290;-87
2021/11/04 11:50:54;;;;;;;29.42;15.60;;;12.00;99.90;;;;;;4997037;28;20189;-85
2021/11/04 11:53:42;;;;;;;32.45;16.80;;;12.00;99.90;;;;;;5013400;28;20189;-86
2021/11/04 11:56:22;;;;;;;32.38;16.15;;;12.00;99.90;;;;;;5014968;28;20281;-85
2021/11/04 11:58:49;;;;;;;32.88;16.42;;;12.00;99.90;;;;;;5013434;28;20232;-86
2021/11/04 12:01:19;;;;;;;32.13;16.05;;;12.00;99.90;;;;;;4997633;28;20221;-84
2021/11/04 12:03:53;;;;;;;33.08;14.23;;;12.10;99.90;;;;;;5017375;28;20193;-87
2021/11/04 12:06:19;;;;;;;31.13;13.80;;;12.10;99.90;;;;;;5017128;28;20153;-86
2021/11/04 12:08:52;;;;;;;25.60;11.88;;;12.30;99.90;;;;;;5014698;28;20185;-86
2021/11/04 12:11:36;;;;;;;26.25;10.82;;;12.20;99.90;;;;;;5013913;28;20208;-86
2021/11/04 12:14:26;;;;;;;20.55;11.10;;;12.30;99.90;;;;;;5014114;28;20534;-88
2021/11/04 12:17:01;;;;;;;26.63;11.82;;;12.30;99.90;;;;;;5013892;28;20239;-87
2021/11/04 12:19:50;;;;;;;24.67;12.52;;;12.30;99.90;;;;;;5013549;28;20205;-86
2021/11/04 12:22:18;;;;;;;26.98;12.48;;;12.40;99.90;;;;;;5013036;28;20185;-87
2021/11/04 12:24:52;;;;;;;27.95;12.98;;;12.50;99.90;;;;;;5014251;28;20181;-87
2021/11/04 12:27:21;;;;;;;25.85;12.95;;;12.50;99.90;;;;;;5013045;28;20697;-86
2021/11/04 12:29:50;;;;;;;31.25;13.27;;;12.50;99.90;;;;;;5013082;28;20181;-86
2021/11/04 12:32:19;;;;;;;35.85;17.38;;;12.40;99.90;;;;;;5013021;28;20203;-85
2021/11/04 12:35:17;;;;;;;31.15;13.57;;;12.70;99.90;;;;;;5013459;28;20177;-86
2021/11/04 12:37:43;;;;;;;23.25;12.73;;;12.50;99.90;;;;;;4960238;28;20196;-87
2021/11/04 12:40:15;;;;;;;29.55;13.65;;;12.40;99.90;;;;;;4996575;28;20213;-86
2021/11/04 12:42:45;;;;;;;29.65;12.85;;;12.40;99.90;;;;;;4997568;28;20189;-85
2021/11/04 12:45:25;;;;;;;28.25;13.38;;;12.30;99.90;;;;;;5013417;28;20193;-86
2021/11/04 12:48:03;;;;;;;29.80;13.85;;;12.30;99.90;;;;;;5013933;28;20173;-86
2021/11/04 12:50:33;;;;;;;24.33;12.73;;;12.30;99.90;;;;;;5013665;28;20161;-87
2021/11/04 12:53:07;;;;;;;26.10;13.15;;;12.20;99.90;;;;;;5013991;28;20177;-86
2021/11/04 12:55:35;;;;;;;26.95;13.63;;;12.20;99.90;;;;;;5013531;28;20180;-86
2021/11/04 12:58:07;;;;;;;23.77;12.77;;;12.20;99.90;;;;;;5013498;28;20698;-85
2021/11/04 13:00:39;;;;;;;25.42;14.23;;;12.20;99.90;;;;;;5013793;28;20201;-86
2021/11/04 13:03:06;;;;;;;25.20;12.93;;;11.60;99.90;;;;;;5013509;28;20234;-85
2021/11/04 13:05:37;;;;;;;23.77;13.13;;;12.10;99.90;;;;;;5014839;28;20178;-85
2021/11/04 13:08:06;;;;;;;25.10;13.32;;;12.00;99.90;;;;;;5014626;28;20161;-87
2021/11/04 13:10:33;;;;;;;29.75;14.65;;;12.00;99.90;;;;;;5013838;28;20212;-85
2021/11/04 13:13:03;;;;;;;27.60;13.73;;;11.50;99.90;;;;;;5013674;28;20170;-85
2021/11/04 13:15:40;;;;;;;29.50;13.57;;;13.70;99.90;;;;;;5014052;28;20177;-85
2021/11/04 13:18:08;;;;;;;27.42;14.20;;;11.90;99.90;;;;;;5013639;28;20196;-86